• Join FlightAware (Why Join?)
  • Login
  • US Flag 
07:47AM EDT


 

Airport Tracker/Info


-or-


 

Live Flight TrackerFlight Track Log ✈ AAR8732 ✈ 02-Oct-2013 ✈ RKJY / RSU - RKSS / GMP

Flight Track Log - Related Links

Times and Time Zones

All times are in EDT time to prevent confusion due to time zone crossing. See the AAR8732 flight status page for this flight to view local times or setup timezone preferences in your user account.

Time Position Orientation Groundspeed Altitude Reporting Facility
EDT Latitude Longitude Course Direction KTS MPH feet Rate Location/Type
07:54PM 35.3592 127.4622 346° North  Level Estimated
07:55PM 35.4241 127.4430 346° North  Level Estimated
07:56PM 35.4890 127.4237 346° North  Level Estimated
07:57PM 35.5539 127.4043 346° North  Level Estimated
07:58PM 35.6188 127.3850 346° North  Level Estimated
07:59PM 35.6837 127.3656 346° North  Level Estimated
08:00PM 35.7486 127.3461 346° North  Level Estimated
08:01PM 35.8134 127.3267 346° North  Level Estimated
08:02PM 35.8783 127.3072 346° North  Level Estimated
08:03PM 35.9432 127.2877 346° North  Level Estimated
08:04PM 36.0081 127.2681 346° North  Level Estimated
08:05PM 36.0729 127.2485 346° North  Level Estimated
08:06PM 36.1378 127.2289 346° North  Level Estimated
08:07PM 36.2027 127.2092 346° North  Level Estimated
08:08PM 36.2676 127.1896 346° North  Level Estimated
08:09PM 36.3324 127.1698 346° North  Level Estimated
08:10PM 36.3973 127.1501 346° North  Level Estimated
08:10PM 36.3810 127.0000 346° North 20,500  Level FlightAware
08:11PM 36.4621 127.1303 346° North  Level Estimated
08:11PM 36.4470 126.9980 359° North 292 336 20,000  Level FlightAware
08:11PM 36.5110 126.9960 359° North 268 308 19,400 -1,200 Descending FlightAware
08:12PM 36.5910 126.9940 359° North 433 498 18,500 -1,860 Descending FlightAware
08:13PM 36.6400 126.9930 359° North 186 214 17,100 -2,340 Descending FlightAware
08:13PM 36.7160 127.0060 North 390 449 15,800 -1,680 Descending FlightAware
08:14PM 36.7380 127.0270 37° Northeast 428 493 15,600 -900 Descending FlightAware
08:14PM 36.7860 127.0870 45° Northeast 252 290 15,000 -840 Descending FlightAware
08:16PM 36.8690 127.1890 44° Northeast 14,200 -780 Descending FlightAware
08:16PM 36.9120 127.2420 45° Northeast 341 392 13,600 -1,020 Descending FlightAware
08:17PM 36.9620 127.3040 45° Northeast 363 418 12,900 -1,260 Descending FlightAware
08:19PM 37.0540 127.2255 326° Northwest  Level Estimated
08:19PM 37.1140 127.3910 326° Northwest 10,500  Level FlightAware
08:19PM 37.1620 127.3850 354° North 417 480 9,400 -1,860 Descending FlightAware
08:20PM 37.1670 127.3810 327° Northwest 354 407 9,300 -1,200 Descending FlightAware
08:20PM 37.1770 127.3640 306° West 260 299 9,000 -1,140 Descending FlightAware
08:20PM 37.1890 127.3380 300° West 146 168 8,600 -1,200 Descending FlightAware
08:20PM 37.1970 127.3220 302° West 233 268 8,300 -1,080 Descending FlightAware
08:21PM 37.2100 127.2910 298° West 302 348 8,000 -540 Descending FlightAware
08:21PM 37.2180 127.2740 301° West 167 192 8,000 -600 Level FlightAware
08:21PM 37.2320 127.2420 299° West 167 192 7,600 -1,080 Descending FlightAware
08:22PM 37.2470 127.2110 301° West 262 302 7,100 -840 Descending FlightAware
08:22PM 37.2570 127.1880 299° West 233 268 7,000  Descending FlightAware
08:22PM 37.2670 127.1660 300° West 225 259 7,100  Climbing FlightAware
08:23PM 37.2760 127.1450 298° West 225 259 7,000 -180 Descending FlightAware
08:23PM 37.2840 127.1300 304° West 222 255 7,000 -360 Level FlightAware
08:23PM 37.2990 127.1120 316° Northwest 234 269 6,800 -900 Descending FlightAware
08:24PM 37.3110 127.0970 315° West 118 136 6,400 -1,200 Descending FlightAware
08:24PM 37.3270 127.0760 314° West 129 148 5,900 -1,140 Descending FlightAware
08:25PM 37.3500 127.0490 317° Northwest 214 246 5,400 -1,140 Descending FlightAware
08:25PM 37.3730 127.0230 318° Northwest 158 182 4,700 -1,020 Descending FlightAware
08:26PM 37.3910 127.0000 315° West 253 291 4,400 -960 Descending FlightAware
08:26PM 37.4060 126.9840 320° Northwest 225 259 4,000 -1,200 Descending FlightAware
08:26PM 37.4150 126.9730 316° Northwest 181 208 3,700 -1,200 Descending FlightAware
08:27PM 37.4280 126.9560 314° West 222 255 3,300 -1,080 Descending FlightAware
08:27PM 37.4350 126.9480 318° Northwest 146 168 3,100 -900 Descending FlightAware
08:27PM 37.4500 126.9290 315° West 253 291 2,800 -900 Descending FlightAware
08:27PM 37.4610 126.9140 313° West 183 211 2,500 -900 Descending FlightAware
08:28PM 37.4720 126.9010 317° Northwest 107 123 2,200 -900 Descending FlightAware
08:28PM 37.4820 126.8880 314° West 114 131 1,900 -840 Descending FlightAware
08:29PM 37.4930 126.8750 317° Northwest 146 168 1,600 -840 Descending FlightAware
08:29PM 37.4950 126.8730 322° Northwest 127 146 1,500 -660 Descending FlightAware
08:29PM 37.5010 126.8650 313° West 126 145 1,400 -600 Descending FlightAware
08:29PM 37.5070 126.8580 317° Northwest 87 100 1,200 -840 Descending FlightAware
08:32PM 37.5583 126.7906 314° West  Level Estimated
08:33PM 37.5583 126.7906 288° West  Level Estimated
08:34PM 37.5583 126.7906 288° West  Level Estimated
08:35PM 37.5583 126.7906 288° West  Level Estimated
08:36PM 37.5583 126.7906 288° West  Level Estimated
08:37PM 37.5583 126.7906 288° West  Level Estimated
08:38PM 37.5583 126.7906 288° West  Level Estimated